sensor_id;sensor_type;location;lat;lon;timestamp;temperature;humidity
38866;DHT22;62686;48.984;8.394;2023-07-16T00:03:15;18.80;99.90
38866;DHT22;62686;48.984;8.394;2023-07-16T00:06:08;18.80;99.90
38866;DHT22;62686;48.984;8.394;2023-07-16T00:09:29;18.80;99.90
38866;DHT22;62686;48.984;8.394;2023-07-16T00:12:05;18.80;99.90
38866;DHT22;62686;48.984;8.394;2023-07-16T00:14:54;18.80;99.90
38866;DHT22;62686;48.984;8.394;2023-07-16T00:17:44;18.80;99.90
38866;DHT22;62686;48.984;8.394;2023-07-16T00:20:34;18.70;99.90
38866;DHT22;62686;48.984;8.394;2023-07-16T00:23:10;18.70;99.90
38866;DHT22;62686;48.984;8.394;2023-07-16T00:29:33;18.60;99.90
38866;DHT22;62686;48.984;8.394;2023-07-16T00:32:35;18.50;99.90
38866;DHT22;62686;48.984;8.394;2023-07-16T00:35:15;18.50;99.90
38866;DHT22;62686;48.984;8.394;2023-07-16T00:38:03;18.50;99.90
38866;DHT22;62686;48.984;8.394;2023-07-16T00:41:06;18.40;99.90
38866;DHT22;62686;48.984;8.394;2023-07-16T00:44:01;18.40;99.90
38866;DHT22;62686;48.984;8.394;2023-07-16T00:46:29;18.10;99.90
38866;DHT22;62686;48.984;8.394;2023-07-16T00:49:29;18.00;99.90
38866;DHT22;62686;48.984;8.394;2023-07-16T00:52:57;18.00;99.90
38866;DHT22;62686;48.984;8.394;2023-07-16T00:55:36;18.00;99.90
38866;DHT22;62686;48.984;8.394;2023-07-16T00:58:10;17.90;99.90
38866;DHT22;62686;48.984;8.394;2023-07-16T01:00:43;17.90;99.90
38866;DHT22;62686;48.984;8.394;2023-07-16T01:03:41;18.00;99.90
38866;DHT22;62686;48.984;8.394;2023-07-16T01:10:12;18.00;99.90
38866;DHT22;62686;48.984;8.394;2023-07-16T01:13:03;17.90;99.90
38866;DHT22;62686;48.984;8.394;2023-07-16T01:18:55;17.70;99.90
38866;DHT22;62686;48.984;8.394;2023-07-16T01:40:12;17.20;99.90
38866;DHT22;62686;48.984;8.394;2023-07-16T01:43:11;17.20;99.90
38866;DHT22;62686;48.984;8.394;2023-07-16T01:45:46;17.10;99.90
38866;DHT22;62686;48.984;8.394;2023-07-16T01:55:25;16.80;99.90
38866;DHT22;62686;48.984;8.394;2023-07-16T01:58:40;16.80;99.90
38866;DHT22;62686;48.984;8.394;2023-07-16T02:01:14;16.90;99.90
38866;DHT22;62686;48.984;8.394;2023-07-16T02:04:42;16.80;99.90
38866;DHT22;62686;48.984;8.394;2023-07-16T02:07:50;16.90;99.90
38866;DHT22;62686;48.984;8.394;2023-07-16T02:10:35;16.90;99.90
38866;DHT22;62686;48.984;8.394;2023-07-16T02:13:17;16.90;99.90
38866;DHT22;62686;48.984;8.394;2023-07-16T02:16:16;16.90;99.90
38866;DHT22;62686;48.984;8.394;2023-07-16T02:18:44;16.90;99.90
38866;DHT22;62686;48.984;8.394;2023-07-16T02:22:00;16.90;99.90
38866;DHT22;62686;48.984;8.394;2023-07-16T02:24:37;16.80;99.90
38866;DHT22;62686;48.984;8.394;2023-07-16T02:27:49;16.80;99.90
38866;DHT22;62686;48.984;8.394;2023-07-16T02:30:28;16.80;99.90
38866;DHT22;62686;48.984;8.394;2023-07-16T02:35:54;16.90;99.90
38866;DHT22;62686;48.984;8.394;2023-07-16T02:38:36;16.90;99.90
38866;DHT22;62686;48.984;8.394;2023-07-16T02:41:11;16.90;99.90
38866;DHT22;62686;48.984;8.394;2023-07-16T02:43:47;17.00;99.90
38866;DHT22;62686;48.984;8.394;2023-07-16T02:46:39;16.90;99.90
38866;DHT22;62686;48.984;8.394;2023-07-16T02:52:28;16.90;99.90
38866;DHT22;62686;48.984;8.394;2023-07-16T02:55:04;16.80;99.90
38866;DHT22;62686;48.984;8.394;2023-07-16T03:01:48;16.80;99.90
38866;DHT22;62686;48.984;8.394;2023-07-16T03:04:30;16.80;99.90
38866;DHT22;62686;48.984;8.394;2023-07-16T03:07:14;16.70;99.90
38866;DHT22;62686;48.984;8.394;2023-07-16T03:09:52;16.60;99.90
38866;DHT22;62686;48.984;8.394;2023-07-16T06:01:27;18.80;99.90
38866;DHT22;62686;48.984;8.394;2023-07-16T06:04:03;19.10;99.90
38866;DHT22;62686;48.984;8.394;2023-07-16T06:06:55;19.40;99.90
38866;DHT22;62686;48.984;8.394;2023-07-16T06:10:19;20.80;99.90
38866;DHT22;62686;48.984;8.394;2023-07-16T06:13:00;23.00;99.90
38866;DHT22;62686;48.984;8.394;2023-07-16T06:15:36;24.30;99.90
38866;DHT22;62686;48.984;8.394;2023-07-16T06:18:56;25.50;99.90
38866;DHT22;62686;48.984;8.394;2023-07-16T06:21:33;26.30;99.90
38866;DHT22;62686;48.984;8.394;2023-07-16T06:24:10;27.00;99.90
38866;DHT22;62686;48.984;8.394;2023-07-16T06:30:26;27.20;99.90
38866;DHT22;62686;48.984;8.394;2023-07-16T06:33:15;26.70;99.90
38866;DHT22;62686;48.984;8.394;2023-07-16T06:35:46;26.50;99.90
38866;DHT22;62686;48.984;8.394;2023-07-16T06:38:54;26.60;99.90
38866;DHT22;62686;48.984;8.394;2023-07-16T06:41:30;26.90;99.90
38866;DHT22;62686;48.984;8.394;2023-07-16T06:44:01;27.30;99.90
38866;DHT22;62686;48.984;8.394;2023-07-16T06:47:06;27.10;99.90
38866;DHT22;62686;48.984;8.394;2023-07-16T06:50:02;27.00;99.90
38866;DHT22;62686;48.984;8.394;2023-07-16T06:52:44;26.90;99.90
38866;DHT22;62686;48.984;8.394;2023-07-16T06:55:40;27.80;99.90
38866;DHT22;62686;48.984;8.394;2023-07-16T07:01:23;28.50;99.90
38866;DHT22;62686;48.984;8.394;2023-07-16T07:07:27;28.60;99.90
38866;DHT22;62686;48.984;8.394;2023-07-16T07:10:43;28.90;99.90
38866;DHT22;62686;48.984;8.394;2023-07-16T07:13:18;29.20;99.90
38866;DHT22;62686;48.984;8.394;2023-07-16T07:15:46;29.50;99.90
38866;DHT22;62686;48.984;8.394;2023-07-16T07:18:18;29.60;99.90
38866;DHT22;62686;48.984;8.394;2023-07-16T07:21:03;28.60;99.90
38866;DHT22;62686;48.984;8.394;2023-07-16T07:24:00;27.90;99.90
38866;DHT22;62686;48.984;8.394;2023-07-16T07:26:30;26.80;99.90
38866;DHT22;62686;48.984;8.394;2023-07-16T07:29:27;25.90;99.90
38866;DHT22;62686;48.984;8.394;2023-07-16T07:32:04;25.80;99.90
38866;DHT22;62686;48.984;8.394;2023-07-16T07:34:41;25.30;99.90
38866;DHT22;62686;48.984;8.394;2023-07-16T07:37:30;25.90;99.90
38866;DHT22;62686;48.984;8.394;2023-07-16T07:40:19;26.50;99.90
38866;DHT22;62686;48.984;8.394;2023-07-16T07:42:50;26.80;99.90
38866;DHT22;62686;48.984;8.394;2023-07-16T07:45:33;26.10;99.90
38866;DHT22;62686;48.984;8.394;2023-07-16T07:48:22;25.50;99.90
38866;DHT22;62686;48.984;8.394;2023-07-16T07:54:04;24.20;99.90
38866;DHT22;62686;48.984;8.394;2023-07-16T08:00:39;26.40;99.90
38866;DHT22;62686;48.984;8.394;2023-07-16T08:03:33;28.70;99.90
38866;DHT22;62686;48.984;8.394;2023-07-16T08:06:24;30.70;99.90
38866;DHT22;62686;48.984;8.394;2023-07-16T08:12:56;31.90;98.80
38866;DHT22;62686;48.984;8.394;2023-07-16T08:19:09;31.50;99.90
38866;DHT22;62686;48.984;8.394;2023-07-16T08:25:48;32.70;97.40
38866;DHT22;62686;48.984;8.394;2023-07-16T08:28:54;33.70;94.80
38866;DHT22;62686;48.984;8.394;2023-07-16T08:38:41;34.10;93.20
38866;DHT22;62686;48.984;8.394;2023-07-16T08:45:35;28.00;98.80
38866;DHT22;62686;48.984;8.394;2023-07-16T08:49:50;24.70;99.90
38866;DHT22;62686;48.984;8.394;2023-07-16T08:52:07;23.00;99.90
38866;DHT22;62686;48.984;8.394;2023-07-16T08:54:58;22.30;99.90
38866;DHT22;62686;48.984;8.394;2023-07-16T08:57:35;22.20;99.90
38866;DHT22;62686;48.984;8.394;2023-07-16T09:05:29;21.90;99.90
38866;DHT22;62686;48.984;8.394;2023-07-16T09:06:57;22.20;99.90
38866;DHT22;62686;48.984;8.394;2023-07-16T09:09:29;22.90;99.90
38866;DHT22;62686;48.984;8.394;2023-07-16T09:12:13;24.70;99.90
38866;DHT22;62686;48.984;8.394;2023-07-16T09:14:50;25.50;99.90
38866;DHT22;62686;48.984;8.394;2023-07-16T09:17:21;26.60;99.90
38866;DHT22;62686;48.984;8.394;2023-07-16T09:20:22;28.10;99.90
38866;DHT22;62686;48.984;8.394;2023-07-16T09:23:27;29.40;99.90
38866;DHT22;62686;48.984;8.394;2023-07-16T09:26:03;31.30;99.90
38866;DHT22;62686;48.984;8.394;2023-07-16T09:29:00;31.20;94.80
38866;DHT22;62686;48.984;8.394;2023-07-16T09:39:10;28.90;96.40
38866;DHT22;62686;48.984;8.394;2023-07-16T09:41:39;29.90;97.30
38866;DHT22;62686;48.984;8.394;2023-07-16T09:44:10;29.40;94.60
38866;DHT22;62686;48.984;8.394;2023-07-16T09:46:39;28.10;96.30
38866;DHT22;62686;48.984;8.394;2023-07-16T09:49:08;27.10;97.50
38866;DHT22;62686;48.984;8.394;2023-07-16T09:51:38;26.50;99.40
38866;DHT22;62686;48.984;8.394;2023-07-16T09:54:08;27.20;99.90
38866;DHT22;62686;48.984;8.394;2023-07-16T09:56:45;26.90;97.90
38866;DHT22;62686;48.984;8.394;2023-07-16T09:59:18;26.90;99.90
38866;DHT22;62686;48.984;8.394;2023-07-16T10:01:48;27.80;99.90
38866;DHT22;62686;48.984;8.394;2023-07-16T10:04:18;28.90;98.20
38866;DHT22;62686;48.984;8.394;2023-07-16T10:06:54;29.40;98.40
38866;DHT22;62686;48.984;8.394;2023-07-16T10:09:37;29.30;95.40
38866;DHT22;62686;48.984;8.394;2023-07-16T10:12:13;28.80;97.10
38866;DHT22;62686;48.984;8.394;2023-07-16T10:14:45;29.00;95.30
38866;DHT22;62686;48.984;8.394;2023-07-16T10:17:14;29.40;94.70
38866;DHT22;62686;48.984;8.394;2023-07-16T10:19:48;30.20;93.50
38866;DHT22;62686;48.984;8.394;2023-07-16T10:22:17;29.30;93.50
38866;DHT22;62686;48.984;8.394;2023-07-16T10:24:51;29.90;94.40
38866;DHT22;62686;48.984;8.394;2023-07-16T10:27:33;30.10;92.10
38866;DHT22;62686;48.984;8.394;2023-07-16T10:30:05;28.60;93.10
38866;DHT22;62686;48.984;8.394;2023-07-16T10:32:34;28.00;94.60
38866;DHT22;62686;48.984;8.394;2023-07-16T10:35:04;27.40;94.40
38866;DHT22;62686;48.984;8.394;2023-07-16T10:37:33;27.10;95.40
38866;DHT22;62686;48.984;8.394;2023-07-16T10:40:02;27.00;96.80
38866;DHT22;62686;48.984;8.394;2023-07-16T10:42:34;27.10;97.30
38866;DHT22;62686;48.984;8.394;2023-07-16T10:45:04;27.80;97.50
38866;DHT22;62686;48.984;8.394;2023-07-16T10:47:35;27.20;95.80
38866;DHT22;62686;48.984;8.394;2023-07-16T10:50:05;27.10;98.00
38866;DHT22;62686;48.984;8.394;2023-07-16T10:52:36;27.00;96.90
38866;DHT22;62686;48.984;8.394;2023-07-16T10:55:05;26.90;98.10
38866;DHT22;62686;48.984;8.394;2023-07-16T10:57:33;27.20;96.70
38866;DHT22;62686;48.984;8.394;2023-07-16T11:00:05;27.20;97.80
38866;DHT22;62686;48.984;8.394;2023-07-16T11:02:39;26.30;97.20
38866;DHT22;62686;48.984;8.394;2023-07-16T11:05:09;25.70;98.80
38866;DHT22;62686;48.984;8.394;2023-07-16T11:07:42;25.90;99.90
38866;DHT22;62686;48.984;8.394;2023-07-16T11:10:12;26.60;99.90
38866;DHT22;62686;48.984;8.394;2023-07-16T11:12:50;27.00;97.50
38866;DHT22;62686;48.984;8.394;2023-07-16T11:15:31;26.90;96.90
38866;DHT22;62686;48.984;8.394;2023-07-16T11:18:00;27.30;97.60
38866;DHT22;62686;48.984;8.394;2023-07-16T11:20:29;27.30;95.80
38866;DHT22;62686;48.984;8.394;2023-07-16T11:22:58;27.90;98.20
38866;DHT22;62686;48.984;8.394;2023-07-16T11:25:26;29.20;96.70
38866;DHT22;62686;48.984;8.394;2023-07-16T11:27:55;30.40;95.90
38866;DHT22;62686;48.984;8.394;2023-07-16T11:30:24;31.80;92.50
38866;DHT22;62686;48.984;8.394;2023-07-16T11:32:58;32.20;88.80
38866;DHT22;62686;48.984;8.394;2023-07-16T11:35:26;32.40;91.00
38866;DHT22;62686;48.984;8.394;2023-07-16T11:37:54;33.10;83.40
38866;DHT22;62686;48.984;8.394;2023-07-16T11:40:23;33.60;84.90
38866;DHT22;62686;48.984;8.394;2023-07-16T11:42:52;33.60;83.80
38866;DHT22;62686;48.984;8.394;2023-07-16T11:45:22;33.30;84.30
38866;DHT22;62686;48.984;8.394;2023-07-16T11:47:54;32.90;80.80
38866;DHT22;62686;48.984;8.394;2023-07-16T11:50:22;33.30;84.50
38866;DHT22;62686;48.984;8.394;2023-07-16T11:52:54;32.90;83.10
38866;DHT22;62686;48.984;8.394;2023-07-16T11:55:23;32.80;83.00
38866;DHT22;62686;48.984;8.394;2023-07-16T11:57:51;32.40;82.10
38866;DHT22;62686;48.984;8.394;2023-07-16T12:00:20;31.60;84.00
38866;DHT22;62686;48.984;8.394;2023-07-16T12:02:48;31.00;83.40
38866;DHT22;62686;48.984;8.394;2023-07-16T12:05:22;30.00;86.70
38866;DHT22;62686;48.984;8.394;2023-07-16T12:07:59;29.60;86.30
38866;DHT22;62686;48.984;8.394;2023-07-16T12:10:28;30.10;87.50
38866;DHT22;62686;48.984;8.394;2023-07-16T12:12:56;30.50;87.80
38866;DHT22;62686;48.984;8.394;2023-07-16T12:15:24;30.60;86.20
38866;DHT22;62686;48.984;8.394;2023-07-16T12:17:52;30.40;86.00
38866;DHT22;62686;48.984;8.394;2023-07-16T12:20:22;31.60;84.80
38866;DHT22;62686;48.984;8.394;2023-07-16T12:22:50;32.10;83.40
38866;DHT22;62686;48.984;8.394;2023-07-16T12:25:19;33.10;85.20
38866;DHT22;62686;48.984;8.394;2023-07-16T12:27:47;31.80;81.70
38866;DHT22;62686;48.984;8.394;2023-07-16T12:30:17;31.80;83.90
38866;DHT22;62686;48.984;8.394;2023-07-16T12:32:45;31.80;82.20
38866;DHT22;62686;48.984;8.394;2023-07-16T12:35:13;31.70;86.70
38866;DHT22;62686;48.984;8.394;2023-07-16T12:37:42;32.10;83.80
38866;DHT22;62686;48.984;8.394;2023-07-16T12:40:11;32.70;80.90
38866;DHT22;62686;48.984;8.394;2023-07-16T12:42:39;33.50;82.50
38866;DHT22;62686;48.984;8.394;2023-07-16T12:45:08;33.80;83.50
38866;DHT22;62686;48.984;8.394;2023-07-16T12:47:36;34.50;78.80
38866;DHT22;62686;48.984;8.394;2023-07-16T12:50:06;32.80;76.10
38866;DHT22;62686;48.984;8.394;2023-07-16T12:52:34;32.90;76.40
38866;DHT22;62686;48.984;8.394;2023-07-16T12:55:06;33.30;76.40
38866;DHT22;62686;48.984;8.394;2023-07-16T12:57:34;33.60;76.40
38866;DHT22;62686;48.984;8.394;2023-07-16T13:00:03;32.90;78.20
38866;DHT22;62686;48.984;8.394;2023-07-16T13:02:32;31.00;77.40
38866;DHT22;62686;48.984;8.394;2023-07-16T13:05:00;30.40;82.10
38866;DHT22;62686;48.984;8.394;2023-07-16T13:07:29;30.30;82.50
38866;DHT22;62686;48.984;8.394;2023-07-16T13:09:58;31.60;81.50
38866;DHT22;62686;48.984;8.394;2023-07-16T13:12:35;32.20;80.20
38866;DHT22;62686;48.984;8.394;2023-07-16T13:15:04;32.70;82.30
38866;DHT22;62686;48.984;8.394;2023-07-16T13:17:32;33.10;77.80
38866;DHT22;62686;48.984;8.394;2023-07-16T13:20:01;32.40;79.10
38866;DHT22;62686;48.984;8.394;2023-07-16T13:22:30;32.40;78.30
38866;DHT22;62686;48.984;8.394;2023-07-16T13:24:59;32.40;78.10
38866;DHT22;62686;48.984;8.394;2023-07-16T13:27:27;32.40;75.40
38866;DHT22;62686;48.984;8.394;2023-07-16T13:29:56;32.00;79.10
38866;DHT22;62686;48.984;8.394;2023-07-16T13:32:25;32.50;82.30
38866;DHT22;62686;48.984;8.394;2023-07-16T13:34:53;32.80;81.10
38866;DHT22;62686;48.984;8.394;2023-07-16T13:37:22;33.20;76.10
38866;DHT22;62686;48.984;8.394;2023-07-16T13:39:50;32.40;75.40
38866;DHT22;62686;48.984;8.394;2023-07-16T13:42:18;31.40;77.40
38866;DHT22;62686;48.984;8.394;2023-07-16T13:44:48;31.00;79.20
38866;DHT22;62686;48.984;8.394;2023-07-16T13:47:18;31.40;77.00
38866;DHT22;62686;48.984;8.394;2023-07-16T13:49:47;32.80;80.40
38866;DHT22;62686;48.984;8.394;2023-07-16T13:52:16;33.10;79.00
38866;DHT22;62686;48.984;8.394;2023-07-16T13:54:45;33.30;74.60
38866;DHT22;62686;48.984;8.394;2023-07-16T13:57:13;33.80;75.40
38866;DHT22;62686;48.984;8.394;2023-07-16T14:05:36;30.90;79.90
38866;DHT22;62686;48.984;8.394;2023-07-16T14:08:05;31.30;80.70
38866;DHT22;62686;48.984;8.394;2023-07-16T14:10:33;31.90;79.20
38866;DHT22;62686;48.984;8.394;2023-07-16T14:13:01;32.00;79.90
38866;DHT22;62686;48.984;8.394;2023-07-16T14:15:29;31.90;77.70
38866;DHT22;62686;48.984;8.394;2023-07-16T14:17:57;32.60;77.80
38866;DHT22;62686;48.984;8.394;2023-07-16T14:20:26;33.50;74.70
38866;DHT22;62686;48.984;8.394;2023-07-16T14:22:55;32.70;73.80
38866;DHT22;62686;48.984;8.394;2023-07-16T14:25:26;31.00;77.10
38866;DHT22;62686;48.984;8.394;2023-07-16T14:27:55;29.60;83.00
38866;DHT22;62686;48.984;8.394;2023-07-16T14:30:23;28.40;81.60
38866;DHT22;62686;48.984;8.394;2023-07-16T14:32:51;27.90;85.60
38866;DHT22;62686;48.984;8.394;2023-07-16T14:35:20;28.10;84.80
38866;DHT22;62686;48.984;8.394;2023-07-16T14:37:57;28.50;86.80
38866;DHT22;62686;48.984;8.394;2023-07-16T14:40:25;29.90;85.60
38866;DHT22;62686;48.984;8.394;2023-07-16T14:42:56;31.10;82.60
38866;DHT22;62686;48.984;8.394;2023-07-16T14:45:24;31.80;79.20
38866;DHT22;62686;48.984;8.394;2023-07-16T14:47:52;32.30;76.90
38866;DHT22;62686;48.984;8.394;2023-07-16T14:50:21;32.10;79.20
38866;DHT22;62686;48.984;8.394;2023-07-16T14:52:50;31.50;79.30
38866;DHT22;62686;48.984;8.394;2023-07-16T14:55:20;31.00;79.00
38866;DHT22;62686;48.984;8.394;2023-07-16T14:57:49;31.60;82.00
38866;DHT22;62686;48.984;8.394;2023-07-16T15:00:18;31.90;74.50
38866;DHT22;62686;48.984;8.394;2023-07-16T15:02:46;32.10;79.60
38866;DHT22;62686;48.984;8.394;2023-07-16T15:05:16;32.50;76.90
38866;DHT22;62686;48.984;8.394;2023-07-16T15:07:46;33.20;75.00
38866;DHT22;62686;48.984;8.394;2023-07-16T15:10:14;33.50;74.20
38866;DHT22;62686;48.984;8.394;2023-07-16T15:12:44;32.90;72.60
38866;DHT22;62686;48.984;8.394;2023-07-16T15:15:12;32.20;75.20
38866;DHT22;62686;48.984;8.394;2023-07-16T15:17:41;31.80;75.60
38866;DHT22;62686;48.984;8.394;2023-07-16T15:20:10;32.00;76.40
38866;DHT22;62686;48.984;8.394;2023-07-16T15:22:38;32.20;74.20
38866;DHT22;62686;48.984;8.394;2023-07-16T15:25:07;32.20;73.30
38866;DHT22;62686;48.984;8.394;2023-07-16T15:27:35;32.20;74.40
38866;DHT22;62686;48.984;8.394;2023-07-16T15:30:07;32.20;75.50
38866;DHT22;62686;48.984;8.394;2023-07-16T15:32:36;30.70;77.20
38866;DHT22;62686;48.984;8.394;2023-07-16T15:35:05;29.20;81.50
38866;DHT22;62686;48.984;8.394;2023-07-16T15:37:33;28.10;84.10
38866;DHT22;62686;48.984;8.394;2023-07-16T15:40:16;27.40;87.70
38866;DHT22;62686;48.984;8.394;2023-07-16T15:42:44;26.90;87.40
38866;DHT22;62686;48.984;8.394;2023-07-16T15:45:15;26.70;89.50
38866;DHT22;62686;48.984;8.394;2023-07-16T15:47:43;26.40;90.80
38866;DHT22;62686;48.984;8.394;2023-07-16T15:50:12;26.50;90.20
38866;DHT22;62686;48.984;8.394;2023-07-16T15:52:40;27.10;87.60
38866;DHT22;62686;48.984;8.394;2023-07-16T15:55:08;27.80;85.60
38866;DHT22;62686;48.984;8.394;2023-07-16T15:57:37;28.40;84.30
38866;DHT22;62686;48.984;8.394;2023-07-16T16:00:06;28.90;85.90
38866;DHT22;62686;48.984;8.394;2023-07-16T16:02:43;29.10;83.50
38866;DHT22;62686;48.984;8.394;2023-07-16T16:05:12;29.20;84.00
38866;DHT22;62686;48.984;8.394;2023-07-16T16:07:43;29.70;85.50
38866;DHT22;62686;48.984;8.394;2023-07-16T16:10:12;30.60;83.70
38866;DHT22;62686;48.984;8.394;2023-07-16T16:12:41;31.00;79.60
38866;DHT22;62686;48.984;8.394;2023-07-16T16:15:10;31.20;81.90
38866;DHT22;62686;48.984;8.394;2023-07-16T16:17:38;31.40;78.90
38866;DHT22;62686;48.984;8.394;2023-07-16T16:20:09;30.90;79.70
38866;DHT22;62686;48.984;8.394;2023-07-16T16:22:38;29.70;81.70
38866;DHT22;62686;48.984;8.394;2023-07-16T16:25:07;28.90;83.90
38866;DHT22;62686;48.984;8.394;2023-07-16T16:27:36;27.90;86.80
38866;DHT22;62686;48.984;8.394;2023-07-16T16:30:05;27.50;88.20
38866;DHT22;62686;48.984;8.394;2023-07-16T16:32:34;27.50;88.50
38866;DHT22;62686;48.984;8.394;2023-07-16T16:35:03;28.30;90.70
38866;DHT22;62686;48.984;8.394;2023-07-16T16:37:33;28.70;87.40
38866;DHT22;62686;48.984;8.394;2023-07-16T16:40:01;29.20;85.80
38866;DHT22;62686;48.984;8.394;2023-07-16T16:42:32;29.60;84.00
38866;DHT22;62686;48.984;8.394;2023-07-16T16:45:01;29.90;82.30
38866;DHT22;62686;48.984;8.394;2023-07-16T16:47:34;29.50;83.20
38866;DHT22;62686;48.984;8.394;2023-07-16T16:50:04;29.50;83.70
38866;DHT22;62686;48.984;8.394;2023-07-16T16:52:34;29.80;84.50
38866;DHT22;62686;48.984;8.394;2023-07-16T16:55:03;29.90;84.20
38866;DHT22;62686;48.984;8.394;2023-07-16T16:57:31;29.20;82.90
38866;DHT22;62686;48.984;8.394;2023-07-16T17:00:00;28.10;85.90
38866;DHT22;62686;48.984;8.394;2023-07-16T17:02:28;27.70;87.80
38866;DHT22;62686;48.984;8.394;2023-07-16T17:04:57;27.20;90.20
38866;DHT22;62686;48.984;8.394;2023-07-16T17:07:25;26.90;91.50
38866;DHT22;62686;48.984;8.394;2023-07-16T17:09:55;26.50;92.50
38866;DHT22;62686;48.984;8.394;2023-07-16T17:12:23;26.10;91.90
38866;DHT22;62686;48.984;8.394;2023-07-16T17:14:51;25.70;92.30
38866;DHT22;62686;48.984;8.394;2023-07-16T17:17:20;25.50;93.60
38866;DHT22;62686;48.984;8.394;2023-07-16T17:19:53;25.50;92.80
38866;DHT22;62686;48.984;8.394;2023-07-16T17:22:21;25.70;92.60
38866;DHT22;62686;48.984;8.394;2023-07-16T17:24:49;26.20;93.20
38866;DHT22;62686;48.984;8.394;2023-07-16T17:27:19;27.00;92.80
38866;DHT22;62686;48.984;8.394;2023-07-16T17:29:47;27.80;92.60
38866;DHT22;62686;48.984;8.394;2023-07-16T17:32:17;28.60;89.60
38866;DHT22;62686;48.984;8.394;2023-07-16T17:34:45;29.20;88.40
38866;DHT22;62686;48.984;8.394;2023-07-16T17:37:13;29.80;86.90
38866;DHT22;62686;48.984;8.394;2023-07-16T17:39:42;29.90;85.60
38866;DHT22;62686;48.984;8.394;2023-07-16T17:42:14;29.70;86.20
38866;DHT22;62686;48.984;8.394;2023-07-16T17:44:44;29.60;85.40
38866;DHT22;62686;48.984;8.394;2023-07-16T17:47:15;30.00;85.80
38866;DHT22;62686;48.984;8.394;2023-07-16T17:49:44;30.00;87.50
38866;DHT22;62686;48.984;8.394;2023-07-16T17:52:12;29.70;83.50
38866;DHT22;62686;48.984;8.394;2023-07-16T17:54:41;29.00;86.60
38866;DHT22;62686;48.984;8.394;2023-07-16T17:57:10;28.20;88.90
38866;DHT22;62686;48.984;8.394;2023-07-16T17:59:39;27.50;90.20
38866;DHT22;62686;48.984;8.394;2023-07-16T18:02:09;26.80;92.20
38866;DHT22;62686;48.984;8.394;2023-07-16T18:04:39;26.40;92.80
38866;DHT22;62686;48.984;8.394;2023-07-16T18:07:07;26.00;94.10
38866;DHT22;62686;48.984;8.394;2023-07-16T18:09:35;25.60;94.30
38866;DHT22;62686;48.984;8.394;2023-07-16T18:12:04;25.30;94.50
38866;DHT22;62686;48.984;8.394;2023-07-16T18:14:33;24.90;95.70
38866;DHT22;62686;48.984;8.394;2023-07-16T18:17:01;24.60;97.20
38866;DHT22;62686;48.984;8.394;2023-07-16T18:19:30;24.30;96.50
38866;DHT22;62686;48.984;8.394;2023-07-16T18:22:00;24.10;98.50
38866;DHT22;62686;48.984;8.394;2023-07-16T18:24:28;23.90;97.90
38866;DHT22;62686;48.984;8.394;2023-07-16T18:26:56;23.70;97.70
38866;DHT22;62686;48.984;8.394;2023-07-16T18:29:25;23.50;98.20
38866;DHT22;62686;48.984;8.394;2023-07-16T18:31:53;23.30;99.50
38866;DHT22;62686;48.984;8.394;2023-07-16T18:34:21;23.20;99.90
38866;DHT22;62686;48.984;8.394;2023-07-16T18:36:51;23.00;99.90
38866;DHT22;62686;48.984;8.394;2023-07-16T18:39:20;22.90;99.90
38866;DHT22;62686;48.984;8.394;2023-07-16T18:41:48;22.70;99.90
38866;DHT22;62686;48.984;8.394;2023-07-16T18:44:16;22.50;99.90
38866;DHT22;62686;48.984;8.394;2023-07-16T18:46:44;22.30;99.90
38866;DHT22;62686;48.984;8.394;2023-07-16T18:49:13;22.20;99.90
38866;DHT22;62686;48.984;8.394;2023-07-16T18:51:41;22.10;99.90
38866;DHT22;62686;48.984;8.394;2023-07-16T18:54:10;22.00;99.90
38866;DHT22;62686;48.984;8.394;2023-07-16T18:56:39;21.80;99.90
38866;DHT22;62686;48.984;8.394;2023-07-16T18:59:08;21.80;99.90
38866;DHT22;62686;48.984;8.394;2023-07-16T19:01:36;21.70;99.90
38866;DHT22;62686;48.984;8.394;2023-07-16T19:04:04;21.50;99.90
38866;DHT22;62686;48.984;8.394;2023-07-16T19:06:33;21.40;99.90
38866;DHT22;62686;48.984;8.394;2023-07-16T19:09:01;21.20;99.90
38866;DHT22;62686;48.984;8.394;2023-07-16T19:11:31;21.00;99.90
38866;DHT22;62686;48.984;8.394;2023-07-16T19:13:59;20.80;99.90
38866;DHT22;62686;48.984;8.394;2023-07-16T19:16:27;20.60;99.90
38866;DHT22;62686;48.984;8.394;2023-07-16T19:18:56;20.50;99.90
38866;DHT22;62686;48.984;8.394;2023-07-16T19:21:24;20.40;99.90
38866;DHT22;62686;48.984;8.394;2023-07-16T19:23:52;20.20;99.90
38866;DHT22;62686;48.984;8.394;2023-07-16T19:26:21;20.10;99.90
38866;DHT22;62686;48.984;8.394;2023-07-16T19:28:51;20.00;99.90
38866;DHT22;62686;48.984;8.394;2023-07-16T19:31:21;19.80;99.90
38866;DHT22;62686;48.984;8.394;2023-07-16T19:33:50;19.70;99.90
38866;DHT22;62686;48.984;8.394;2023-07-16T19:36:20;19.60;99.90
38866;DHT22;62686;48.984;8.394;2023-07-16T19:38:48;19.60;99.90
38866;DHT22;62686;48.984;8.394;2023-07-16T19:41:16;19.40;99.90
38866;DHT22;62686;48.984;8.394;2023-07-16T19:43:45;19.30;99.90
38866;DHT22;62686;48.984;8.394;2023-07-16T19:46:15;19.20;99.90
38866;DHT22;62686;48.984;8.394;2023-07-16T19:48:43;19.00;99.90
38866;DHT22;62686;48.984;8.394;2023-07-16T19:51:11;18.90;99.90
38866;DHT22;62686;48.984;8.394;2023-07-16T19:53:40;18.80;99.90
38866;DHT22;62686;48.984;8.394;2023-07-16T19:56:08;18.70;99.90
38866;DHT22;62686;48.984;8.394;2023-07-16T19:58:37;18.60;99.90
38866;DHT22;62686;48.984;8.394;2023-07-16T20:01:08;18.60;99.90
38866;DHT22;62686;48.984;8.394;2023-07-16T20:03:38;18.70;99.90
38866;DHT22;62686;48.984;8.394;2023-07-16T20:06:07;18.70;99.90
38866;DHT22;62686;48.984;8.394;2023-07-16T20:08:35;18.60;99.90
38866;DHT22;62686;48.984;8.394;2023-07-16T20:11:03;18.60;99.90
38866;DHT22;62686;48.984;8.394;2023-07-16T20:13:31;18.60;99.90
38866;DHT22;62686;48.984;8.394;2023-07-16T20:16:00;18.50;99.90
38866;DHT22;62686;48.984;8.394;2023-07-16T20:18:28;18.40;99.90
38866;DHT22;62686;48.984;8.394;2023-07-16T20:20:58;18.30;99.90
38866;DHT22;62686;48.984;8.394;2023-07-16T20:23:26;18.30;99.90
38866;DHT22;62686;48.984;8.394;2023-07-16T20:25:54;18.20;99.90
38866;DHT22;62686;48.984;8.394;2023-07-16T20:28:25;18.10;99.90
38866;DHT22;62686;48.984;8.394;2023-07-16T20:30:54;18.10;99.90
38866;DHT22;62686;48.984;8.394;2023-07-16T20:33:23;18.10;99.90
38866;DHT22;62686;48.984;8.394;2023-07-16T20:35:51;18.10;99.90
38866;DHT22;62686;48.984;8.394;2023-07-16T20:38:21;18.10;99.90
38866;DHT22;62686;48.984;8.394;2023-07-16T20:40:49;18.10;99.90
38866;DHT22;62686;48.984;8.394;2023-07-16T20:43:17;18.00;99.90
38866;DHT22;62686;48.984;8.394;2023-07-16T20:45:46;17.90;99.90
38866;DHT22;62686;48.984;8.394;2023-07-16T20:48:15;17.90;99.90
38866;DHT22;62686;48.984;8.394;2023-07-16T20:50:45;17.80;99.90